Time;durP1;ratioP1;P1;durP2;ratioP2;P2;SDS_P1;SDS_P2;PMS_P1;PMS_P2;Temp;Humidity;BMP_temperature;BMP_pressure;BME280_temperature;BME280_humidity;BME280_pressure;Samples;Min_cycle;Max_cycle;Signal;HPM_P1;HPM_P2
2023/09/02 00:02:25;;;;;;;0.80;0.80;;;;;;;;;;4954375;28;20531;-73
2023/09/02 00:04:50;;;;;;;1.15;1.00;;;;;;;;;;4955155;28;20174;-72
2023/09/02 00:07:15;;;;;;;1.00;0.90;;;;;;;;;;4955394;28;20407;-72
2023/09/02 00:09:41;;;;;;;0.90;0.90;;;;;;;;;;4946012;28;20078;-72
2023/09/02 00:12:07;;;;;;;1.00;1.00;;;;;;;;;;4955036;28;20027;-73
2023/09/02 00:14:32;;;;;;;1.20;1.10;;;;;;;;;;4961490;28;20039;-73
2023/09/02 00:16:58;;;;;;;0.95;0.80;;;;;;;;;;4959923;28;20106;-72
2023/09/02 00:19:23;;;;;;;1.05;0.98;;;;;;;;;;4961491;28;20050;-72
2023/09/02 00:21:49;;;;;;;0.93;0.93;;;;;;;;;;4952945;28;20039;-73
2023/09/02 00:24:15;;;;;;;1.00;1.00;;;;;;;;;;4957151;28;20696;-74
2023/09/02 00:26:40;;;;;;;1.00;1.00;;;;;;;;;;4946080;28;20738;-73
2023/09/02 00:29:05;;;;;;;0.82;0.80;;;;;;;;;;4962999;28;20043;-73
2023/09/02 00:31:33;;;;;;;0.77;0.77;;;;;;;;;;4964337;28;21318;-73
2023/09/02 00:33:59;;;;;;;0.88;0.80;;;;;;;;;;4962594;28;20039;-73
2023/09/02 00:36:24;;;;;;;0.98;0.85;;;;;;;;;;4948392;28;20388;-73
2023/09/02 00:38:50;;;;;;;1.00;1.00;;;;;;;;;;4965475;28;20038;-72
2023/09/02 00:41:39;;;;;;;1.02;0.98;;;;;;;;;;4963535;28;20034;-72
2023/09/02 00:44:05;;;;;;;1.10;1.05;;;;;;;;;;4959107;28;20035;-73
2023/09/02 00:46:31;;;;;;;3.00;1.02;;;;;;;;;;4958210;28;20049;-72
2023/09/02 00:48:56;;;;;;;0.95;0.95;;;;;;;;;;4954909;28;20050;-72
2023/09/02 00:51:22;;;;;;;0.50;0.50;;;;;;;;;;4961832;28;20118;-72
2023/09/02 00:53:47;;;;;;;0.63;0.63;;;;;;;;;;4957903;28;20098;-73
2023/09/02 00:56:16;;;;;;;0.43;0.43;;;;;;;;;;4964872;28;20042;-73
2023/09/02 00:58:43;;;;;;;0.60;0.60;;;;;;;;;;4959236;28;20499;-73
2023/09/02 01:01:10;;;;;;;0.70;0.70;;;;;;;;;;4963316;28;20081;-73
2023/09/02 01:03:35;;;;;;;0.70;0.50;;;;;;;;;;4946867;28;20035;-73
2023/09/02 01:06:04;;;;;;;1.60;0.60;;;;;;;;;;4958294;28;20551;-73
2023/09/02 01:08:30;;;;;;;0.50;0.50;;;;;;;;;;4957620;28;20035;-73
2023/09/02 01:10:58;;;;;;;0.65;0.43;;;;;;;;;;4957912;28;20047;-73
2023/09/02 01:13:24;;;;;;;0.47;0.47;;;;;;;;;;4957827;28;20045;-73
2023/09/02 01:15:50;;;;;;;0.43;0.43;;;;;;;;;;4948359;28;20403;-74
2023/09/02 01:18:16;;;;;;;0.50;0.50;;;;;;;;;;4944910;28;20050;-73
2023/09/02 01:21:35;;;;;;;0.75;0.60;;;;;;;;;;4957713;28;20599;-73
2023/09/02 01:24:28;;;;;;;2.17;1.13;;;;;;;;;;4905901;29;20107;-73
2023/09/02 01:27:16;;;;;;;0.98;0.98;;;;;;;;;;4931968;28;20035;-73
2023/09/02 01:30:09;;;;;;;0.80;0.80;;;;;;;;;;4957484;28;20569;-73
2023/09/02 01:32:39;;;;;;;0.70;0.70;;;;;;;;;;4957602;28;20042;-73
2023/09/02 01:35:06;;;;;;;1.30;1.20;;;;;;;;;;4950286;28;20158;-74
2023/09/02 01:37:42;;;;;;;0.80;0.80;;;;;;;;;;4957434;28;20113;-73
2023/09/02 01:40:10;;;;;;;0.50;0.50;;;;;;;;;;4953982;28;20055;-72
2023/09/02 01:42:37;;;;;;;1.15;1.05;;;;;;;;;;4961642;28;20050;-72
2023/09/02 01:45:03;;;;;;;1.10;1.00;;;;;;;;;;4957672;28;20046;-73
2023/09/02 01:47:29;;;;;;;2.10;0.95;;;;;;;;;;4951323;28;20419;-72
2023/09/02 01:49:54;;;;;;;0.90;0.90;;;;;;;;;;4960801;28;20060;-72
2023/09/02 01:52:21;;;;;;;0.60;0.60;;;;;;;;;;4960168;28;20049;-72
2023/09/02 01:54:47;;;;;;;0.60;0.60;;;;;;;;;;4956662;28;20057;-72
2023/09/02 01:57:13;;;;;;;1.83;1.40;;;;;;;;;;4960953;28;20403;-73
2023/09/02 01:59:38;;;;;;;1.10;1.00;;;;;;;;;;4959685;28;20062;-73
2023/09/02 02:02:03;;;;;;;0.60;0.60;;;;;;;;;;4945263;28;20042;-73
2023/09/02 02:04:40;;;;;;;1.98;1.80;;;;;;;;;;4944860;28;20122;-73
2023/09/02 02:07:11;;;;;;;0.60;0.60;;;;;;;;;;4952489;28;20050;-74
2023/09/02 02:09:47;;;;;;;1.88;1.77;;;;;;;;;;4957049;28;20470;-72
2023/09/02 02:12:13;;;;;;;0.70;0.70;;;;;;;;;;4960018;28;20055;-74
2023/09/02 02:14:38;;;;;;;0.50;0.50;;;;;;;;;;4961038;28;20117;-73
2023/09/02 02:17:06;;;;;;;1.20;1.10;;;;;;;;;;4946842;28;20066;-72
2023/09/02 02:19:32;;;;;;;4.95;1.00;;;;;;;;;;4956605;28;20510;-73
2023/09/02 02:21:58;;;;;;;0.65;0.65;;;;;;;;;;4957289;28;20097;-72
2023/09/02 02:24:24;;;;;;;0.70;0.70;;;;;;;;;;4956178;28;20081;-72
2023/09/02 02:26:50;;;;;;;1.45;0.73;;;;;;;;;;4960266;28;20596;-72
2023/09/02 02:29:15;;;;;;;1.23;1.13;;;;;;;;;;4958323;28;20060;-72
2023/09/02 02:31:41;;;;;;;1.50;1.40;;;;;;;;;;4957936;28;20109;-73
2023/09/02 02:34:06;;;;;;;3.03;1.60;;;;;;;;;;4960371;28;20047;-72
2023/09/02 02:36:32;;;;;;;2.20;1.58;;;;;;;;;;4962121;28;20042;-73
2023/09/02 02:38:57;;;;;;;1.08;1.00;;;;;;;;;;4957538;28;20055;-72
2023/09/02 02:41:22;;;;;;;0.65;0.65;;;;;;;;;;4960323;28;20422;-72
2023/09/02 02:43:48;;;;;;;0.75;0.75;;;;;;;;;;4951803;28;20049;-72
2023/09/02 02:46:13;;;;;;;0.68;0.65;;;;;;;;;;4961779;28;20085;-72
2023/09/02 02:48:38;;;;;;;0.65;0.65;;;;;;;;;;4964258;28;20585;-73
2023/09/02 02:51:04;;;;;;;2.20;1.08;;;;;;;;;;4960391;28;20038;-73
2023/09/02 02:53:29;;;;;;;0.70;0.70;;;;;;;;;;4960514;28;20027;-73
2023/09/02 02:55:55;;;;;;;1.92;1.73;;;;;;;;;;4960486;28;20132;-72
2023/09/02 02:58:21;;;;;;;1.30;1.10;;;;;;;;;;4948181;28;20046;-72
2023/09/02 03:00:46;;;;;;;1.33;1.20;;;;;;;;;;4959122;28;20454;-71
2023/09/02 03:03:12;;;;;;;1.38;0.70;;;;;;;;;;4958615;28;20511;-74
2023/09/02 03:05:39;;;;;;;1.40;0.75;;;;;;;;;;4959154;28;20610;-73
2023/09/02 03:08:09;;;;;;;0.90;0.90;;;;;;;;;;4955543;28;20027;-74
2023/09/02 03:10:35;;;;;;;0.68;0.55;;;;;;;;;;4959354;28;20042;-72
2023/09/02 03:13:05;;;;;;;1.13;1.02;;;;;;;;;;4948975;28;20031;-73
2023/09/02 03:15:30;;;;;;;0.55;0.55;;;;;;;;;;4959193;28;20779;-72
2023/09/02 03:17:56;;;;;;;0.90;0.90;;;;;;;;;;4955092;28;20122;-72
2023/09/02 03:20:21;;;;;;;1.77;1.30;;;;;;;;;;4954730;28;20046;-73
2023/09/02 03:22:47;;;;;;;1.17;1.05;;;;;;;;;;4955740;28;20510;-73
2023/09/02 03:25:12;;;;;;;1.10;1.05;;;;;;;;;;4959369;28;20042;-72
2023/09/02 03:27:39;;;;;;;1.20;1.10;;;;;;;;;;4949574;28;20403;-73
2023/09/02 03:30:06;;;;;;;0.70;0.70;;;;;;;;;;4959290;28;20031;-72
2023/09/02 03:32:31;;;;;;;1.40;1.20;;;;;;;;;;4955400;28;20074;-72
2023/09/02 03:34:57;;;;;;;0.60;0.60;;;;;;;;;;4956403;28;20134;-73
2023/09/02 03:37:23;;;;;;;0.70;0.70;;;;;;;;;;4962412;28;20035;-72
2023/09/02 03:39:48;;;;;;;1.65;1.30;;;;;;;;;;4957020;28;20047;-72
2023/09/02 03:42:13;;;;;;;0.70;0.70;;;;;;;;;;4949203;28;20055;-72
2023/09/02 03:44:39;;;;;;;0.80;0.80;;;;;;;;;;4959459;28;20113;-72
2023/09/02 03:47:04;;;;;;;1.08;1.08;;;;;;;;;;4963043;28;20035;-72
2023/09/02 03:49:29;;;;;;;1.20;1.10;;;;;;;;;;4955638;28;20038;-73
2023/09/02 03:51:55;;;;;;;0.90;0.90;;;;;;;;;;4957953;28;20113;-72
2023/09/02 03:54:20;;;;;;;0.90;0.88;;;;;;;;;;4954444;28;20118;-73
2023/09/02 03:56:46;;;;;;;0.95;0.90;;;;;;;;;;4947407;28;20044;-73
2023/09/02 03:59:11;;;;;;;2.10;0.93;;;;;;;;;;4961733;28;20054;-72
2023/09/02 04:01:36;;;;;;;1.25;0.70;;;;;;;;;;4965654;28;20046;-73
2023/09/02 04:04:02;;;;;;;0.63;0.60;;;;;;;;;;4959247;28;20034;-72
2023/09/02 04:06:27;;;;;;;0.85;0.85;;;;;;;;;;4966396;28;20892;-73
2023/09/02 04:08:53;;;;;;;0.98;0.90;;;;;;;;;;4964232;28;20038;-73
2023/09/02 04:11:18;;;;;;;0.82;0.82;;;;;;;;;;4961417;28;20141;-72
2023/09/02 04:13:44;;;;;;;1.27;0.82;;;;;;;;;;4960507;28;20054;-73
2023/09/02 04:16:10;;;;;;;0.50;0.50;;;;;;;;;;4959948;28;20047;-72
2023/09/02 04:18:36;;;;;;;0.40;0.40;;;;;;;;;;4965710;28;20046;-72
2023/09/02 04:21:03;;;;;;;0.50;0.50;;;;;;;;;;4961339;28;20523;-72
2023/09/02 04:23:28;;;;;;;0.80;0.80;;;;;;;;;;4932144;28;20187;-72
2023/09/02 04:25:55;;;;;;;1.10;1.00;;;;;;;;;;4933190;28;20463;-72
2023/09/02 04:28:21;;;;;;;0.70;0.70;;;;;;;;;;4942214;28;20038;-71
2023/09/02 04:30:47;;;;;;;0.55;0.55;;;;;;;;;;4942950;28;20031;-71
2023/09/02 04:33:13;;;;;;;0.52;0.52;;;;;;;;;;4962415;28;20053;-71
2023/09/02 04:35:40;;;;;;;1.23;0.70;;;;;;;;;;4959041;28;20605;-72
2023/09/02 04:38:06;;;;;;;0.80;0.80;;;;;;;;;;4947998;28;20123;-72
2023/09/02 04:40:38;;;;;;;0.85;0.85;;;;;;;;;;4955383;28;20129;-72
2023/09/02 04:43:05;;;;;;;0.70;0.70;;;;;;;;;;4957120;28;20523;-72
2023/09/02 04:45:34;;;;;;;0.75;0.73;;;;;;;;;;4957801;28;20043;-72
2023/09/02 04:48:00;;;;;;;0.80;0.80;;;;;;;;;;4927600;28;20035;-71
2023/09/02 04:50:27;;;;;;;0.73;0.60;;;;;;;;;;4928697;28;20196;-72
2023/09/02 04:52:52;;;;;;;0.95;0.70;;;;;;;;;;4939277;28;20067;-71
2023/09/02 04:55:19;;;;;;;0.73;0.70;;;;;;;;;;4941866;28;20146;-71
2023/09/02 04:57:45;;;;;;;0.50;0.50;;;;;;;;;;4929993;28;20050;-71
2023/09/02 05:00:12;;;;;;;0.88;0.82;;;;;;;;;;4921426;28;20035;-71
2023/09/02 05:02:37;;;;;;;1.17;1.08;;;;;;;;;;4934401;28;20747;-73
2023/09/02 05:05:03;;;;;;;0.90;0.90;;;;;;;;;;4943760;28;20035;-71
2023/09/02 05:07:28;;;;;;;0.80;0.80;;;;;;;;;;4956926;28;20125;-72
2023/09/02 05:09:54;;;;;;;1.20;1.20;;;;;;;;;;4960275;28;20045;-73
2023/09/02 05:12:20;;;;;;;1.88;1.73;;;;;;;;;;4956197;28;20164;-72
2023/09/02 05:14:46;;;;;;;1.50;1.40;;;;;;;;;;4960121;28;20042;-72
2023/09/02 05:17:11;;;;;;;2.90;1.90;;;;;;;;;;4956006;28;20150;-72
2023/09/02 05:19:37;;;;;;;6.47;3.08;;;;;;;;;;4948268;28;20121;-73
2023/09/02 05:22:03;;;;;;;0.90;0.80;;;;;;;;;;4944303;28;20058;-72
2023/09/02 05:24:28;;;;;;;1.00;0.90;;;;;;;;;;4955510;28;20162;-71
2023/09/02 05:26:54;;;;;;;0.70;0.70;;;;;;;;;;4960182;28;20129;-72
2023/09/02 05:29:19;;;;;;;1.10;1.00;;;;;;;;;;4946488;28;20042;-72
2023/09/02 05:31:44;;;;;;;2.05;0.90;;;;;;;;;;4958899;28;20129;-73
2023/09/02 05:34:10;;;;;;;0.88;0.82;;;;;;;;;;4947323;28;20891;-72
2023/09/02 05:36:35;;;;;;;0.90;0.90;;;;;;;;;;4960764;28;20053;-72
2023/09/02 05:39:01;;;;;;;0.80;0.80;;;;;;;;;;4956315;28;20043;-72
2023/09/02 05:41:28;;;;;;;1.40;1.10;;;;;;;;;;4957746;28;20039;-72
2023/09/02 05:43:53;;;;;;;0.93;0.93;;;;;;;;;;4962276;28;20503;-73
2023/09/02 05:46:19;;;;;;;1.10;1.00;;;;;;;;;;4960282;28;20058;-71
2023/09/02 05:48:44;;;;;;;1.67;1.35;;;;;;;;;;4949352;28;20122;-71
2023/09/02 05:51:10;;;;;;;1.35;1.23;;;;;;;;;;4957326;28;20039;-73
2023/09/02 05:53:35;;;;;;;3.22;2.58;;;;;;;;;;4960018;28;20743;-71
2023/09/02 05:56:00;;;;;;;3.85;2.80;;;;;;;;;;4945941;28;20055;-72
2023/09/02 05:58:27;;;;;;;4.90;2.88;;;;;;;;;;4957326;28;20128;-72
2023/09/02 06:00:52;;;;;;;3.00;2.47;;;;;;;;;;4957756;28;20668;-71
2023/09/02 06:03:17;;;;;;;2.72;2.28;;;;;;;;;;4946594;28;20043;-71
2023/09/02 06:05:43;;;;;;;3.22;2.45;;;;;;;;;;4964272;28;20411;-72
2023/09/02 06:08:09;;;;;;;3.67;2.45;;;;;;;;;;4960434;28;20090;-71
2023/09/02 06:10:35;;;;;;;1.35;0.80;;;;;;;;;;4959921;28;20326;-70
2023/09/02 06:13:00;;;;;;;3.55;2.58;;;;;;;;;;4957558;28;20581;-72
2023/09/02 06:15:26;;;;;;;2.22;1.45;;;;;;;;;;4956851;28;20155;-74
2023/09/02 06:17:51;;;;;;;3.00;2.10;;;;;;;;;;4953746;28;20047;-73
2023/09/02 06:20:20;;;;;;;3.03;2.15;;;;;;;;;;4962011;28;20065;-74
2023/09/02 06:22:45;;;;;;;1.52;1.42;;;;;;;;;;4961459;28;20062;-73
2023/09/02 06:25:11;;;;;;;2.20;2.00;;;;;;;;;;4961473;28;20038;-73
2023/09/02 06:27:37;;;;;;;6.05;2.90;;;;;;;;;;4962979;28;20050;-74
2023/09/02 06:30:03;;;;;;;4.75;3.05;;;;;;;;;;4952287;28;20185;-73
2023/09/02 06:32:29;;;;;;;4.93;3.05;;;;;;;;;;4961812;28;20066;-73
2023/09/02 06:34:54;;;;;;;5.63;3.40;;;;;;;;;;4960413;28;20039;-73
2023/09/02 06:37:20;;;;;;;5.07;3.42;;;;;;;;;;4961507;28;20411;-73
2023/09/02 06:39:45;;;;;;;2.20;1.90;;;;;;;;;;4960387;28;20049;-73
2023/09/02 06:42:10;;;;;;;4.60;3.55;;;;;;;;;;4962650;28;20046;-73
2023/09/02 06:44:36;;;;;;;3.25;2.15;;;;;;;;;;4948590;28;20043;-73
2023/09/02 06:47:02;;;;;;;3.28;2.15;;;;;;;;;;4963758;28;20542;-73
2023/09/02 06:49:30;;;;;;;5.90;3.63;;;;;;;;;;4958602;28;20494;-73
2023/09/02 06:51:55;;;;;;;5.60;4.30;;;;;;;;;;4962391;28;20500;-73
2023/09/02 06:54:21;;;;;;;3.35;2.58;;;;;;;;;;4961982;28;20054;-73
2023/09/02 06:56:46;;;;;;;4.03;2.88;;;;;;;;;;4962255;28;20137;-73
2023/09/02 06:59:12;;;;;;;5.25;3.55;;;;;;;;;;4952878;28;20046;-73
2023/09/02 07:01:38;;;;;;;13.10;3.30;;;;;;;;;;4965638;28;20046;-73
2023/09/02 07:04:03;;;;;;;5.18;3.58;;;;;;;;;;4964658;28;20439;-73
2023/09/02 07:06:28;;;;;;;5.10;3.47;;;;;;;;;;4961283;28;20061;-73
2023/09/02 07:08:54;;;;;;;4.82;3.60;;;;;;;;;;4959092;28;20027;-73
2023/09/02 07:11:19;;;;;;;9.98;4.40;;;;;;;;;;4966841;28;20508;-73
2023/09/02 07:13:47;;;;;;;4.88;3.33;;;;;;;;;;4955722;28;20031;-73
2023/09/02 07:16:15;;;;;;;9.30;3.85;;;;;;;;;;4959049;28;20113;-73
2023/09/02 07:18:40;;;;;;;19.92;4.30;;;;;;;;;;4960303;28;20518;-73
2023/09/02 07:21:06;;;;;;;49.17;6.03;;;;;;;;;;4955191;28;20073;-73
2023/09/02 07:23:33;;;;;;;17.10;4.78;;;;;;;;;;4961389;28;20507;-73
2023/09/02 07:26:00;;;;;;;15.88;5.18;;;;;;;;;;4959842;28;20116;-73
2023/09/02 07:28:30;;;;;;;13.55;4.50;;;;;;;;;;4937442;28;20643;-73
2023/09/02 07:31:05;;;;;;;6.30;1.95;;;;;;;;;;4964282;28;21550;-73
2023/09/02 07:33:30;;;;;;;9.68;3.08;;;;;;;;;;4954771;28;20094;-73
2023/09/02 07:35:57;;;;;;;15.13;4.82;;;;;;;;;;4963367;28;20152;-73
2023/09/02 07:38:23;;;;;;;10.00;4.15;;;;;;;;;;4957645;28;20050;-73
2023/09/02 07:40:49;;;;;;;8.98;3.70;;;;;;;;;;4957255;28;20035;-74
2023/09/02 07:43:14;;;;;;;2.40;2.03;;;;;;;;;;4963314;28;20045;-73
2023/09/02 07:45:39;;;;;;;6.53;2.35;;;;;;;;;;4959743;28;20038;-73
2023/09/02 07:48:05;;;;;;;2.25;1.60;;;;;;;;;;4966146;28;20495;-73
2023/09/02 07:50:30;;;;;;;2.30;1.98;;;;;;;;;;4962176;28;20047;-73
2023/09/02 07:52:56;;;;;;;1.23;1.00;;;;;;;;;;4968001;28;20042;-73
2023/09/02 07:55:23;;;;;;;2.15;1.88;;;;;;;;;;4954774;28;20586;-74
2023/09/02 07:57:48;;;;;;;2.05;1.75;;;;;;;;;;4961050;28;20035;-73
2023/09/02 08:00:14;;;;;;;4.70;3.15;;;;;;;;;;4967206;28;20138;-73
2023/09/02 08:02:39;;;;;;;4.15;2.92;;;;;;;;;;4967972;28;20053;-73
2023/09/02 08:05:06;;;;;;;1.80;1.30;;;;;;;;;;4962986;28;20045;-73
2023/09/02 08:07:32;;;;;;;3.55;2.95;;;;;;;;;;4963118;28;20031;-73
2023/09/02 08:09:58;;;;;;;3.83;3.10;;;;;;;;;;4959288;28;20066;-73
2023/09/02 08:12:23;;;;;;;0.82;0.60;;;;;;;;;;4962079;28;20058;-73
2023/09/02 08:14:48;;;;;;;2.15;1.58;;;;;;;;;;4966078;28;20134;-73
2023/09/02 08:17:14;;;;;;;1.73;1.38;;;;;;;;;;4961191;28;20764;-74
2023/09/02 08:19:39;;;;;;;2.13;1.55;;;;;;;;;;4963514;28;20054;-73
2023/09/02 08:22:05;;;;;;;2.88;2.08;;;;;;;;;;4955366;28;20047;-73
2023/09/02 08:24:30;;;;;;;3.30;2.78;;;;;;;;;;4966567;28;20522;-73
2023/09/02 08:26:56;;;;;;;2.35;2.00;;;;;;;;;;4963654;28;20090;-73
2023/09/02 08:29:21;;;;;;;3.65;2.20;;;;;;;;;;4960046;28;20125;-73
2023/09/02 08:31:52;;;;;;;2.38;2.08;;;;;;;;;;4966004;28;20475;-73
2023/09/02 08:34:18;;;;;;;4.53;2.83;;;;;;;;;;4961804;28;20042;-74
2023/09/02 08:36:43;;;;;;;3.55;2.67;;;;;;;;;;4945438;28;20050;-74
2023/09/02 08:39:08;;;;;;;3.85;2.67;;;;;;;;;;4959594;28;20042;-73
2023/09/02 08:41:35;;;;;;;3.47;2.35;;;;;;;;;;4961835;28;20043;-73
2023/09/02 08:44:02;;;;;;;2.78;2.45;;;;;;;;;;4960630;28;20101;-74
2023/09/02 08:46:31;;;;;;;2.15;1.58;;;;;;;;;;4959781;28;20043;-74
2023/09/02 08:48:57;;;;;;;3.90;2.78;;;;;;;;;;4964304;28;20034;-73
2023/09/02 08:51:24;;;;;;;2.88;2.53;;;;;;;;;;4942566;28;20031;-73
2023/09/02 08:53:53;;;;;;;4.78;2.85;;;;;;;;;;4967910;28;20549;-74
2023/09/02 08:56:20;;;;;;;2.95;2.10;;;;;;;;;;4961872;28;20479;-73
2023/09/02 08:58:45;;;;;;;3.35;2.25;;;;;;;;;;4963943;28;20526;-74
2023/09/02 09:01:16;;;;;;;4.25;2.78;;;;;;;;;;4961722;28;20117;-74
2023/09/02 09:03:44;;;;;;;;;;;;;;;;;;4954718;28;20511;-74
2023/09/02 09:06:10;;;;;;;2.50;2.00;;;;;;;;;;4964901;28;20488;-73
2023/09/02 09:08:37;;;;;;;1.13;0.68;;;;;;;;;;4963157;28;20050;-74
2023/09/02 09:11:05;;;;;;;3.35;2.50;;;;;;;;;;4958242;28;20081;-74
2023/09/02 09:13:33;;;;;;;2.00;1.85;;;;;;;;;;4960072;28;20031;-74
2023/09/02 09:15:59;;;;;;;3.33;2.65;;;;;;;;;;4958933;28;20065;-74
2023/09/02 09:18:24;;;;;;;2.55;1.92;;;;;;;;;;4948419;28;20511;-73
2023/09/02 09:20:50;;;;;;;3.83;2.90;;;;;;;;;;4955988;28;20094;-74
2023/09/02 09:23:15;;;;;;;2.92;2.25;;;;;;;;;;4946699;28;20121;-74
2023/09/02 09:25:42;;;;;;;2.50;2.22;;;;;;;;;;4937574;28;20047;-74
2023/09/02 09:28:11;;;;;;;3.08;2.42;;;;;;;;;;4943721;28;20034;-74
2023/09/02 09:30:37;;;;;;;3.30;2.85;;;;;;;;;;4932986;28;20094;-74
2023/09/02 09:33:07;;;;;;;2.70;2.50;;;;;;;;;;4943489;28;20031;-74
2023/09/02 09:35:33;;;;;;;1.50;1.40;;;;;;;;;;4947847;28;20133;-73
2023/09/02 09:37:59;;;;;;;2.78;2.33;;;;;;;;;;4942066;28;20042;-72
2023/09/02 09:40:30;;;;;;;1.45;1.35;;;;;;;;;;4962073;28;21021;-72
2023/09/02 09:42:56;;;;;;;1.90;1.50;;;;;;;;;;4961192;28;20388;-72
2023/09/02 09:45:21;;;;;;;3.03;2.22;;;;;;;;;;4932963;28;20036;-72
2023/09/02 09:47:46;;;;;;;2.88;2.40;;;;;;;;;;4961976;28;20550;-73
2023/09/02 09:50:16;;;;;;;2.13;1.73;;;;;;;;;;4958337;28;20042;-72
2023/09/02 09:53:02;;;;;;;0.85;0.85;;;;;;;;;;4963043;28;20122;-72
2023/09/02 09:55:31;;;;;;;2.53;2.33;;;;;;;;;;4957208;28;21985;-72
2023/09/02 09:57:57;;;;;;;1.65;1.42;;;;;;;;;;4946423;28;20520;-73
2023/09/02 10:00:24;;;;;;;0.95;0.93;;;;;;;;;;4962190;28;20050;-73
2023/09/02 10:02:59;;;;;;;1.70;1.30;;;;;;;;;;4959649;28;20045;-72
2023/09/02 10:05:32;;;;;;;2.38;2.15;;;;;;;;;;4956700;28;20114;-73
2023/09/02 10:08:03;;;;;;;2.60;2.40;;;;;;;;;;4961352;28;20392;-73
2023/09/02 10:10:38;;;;;;;2.20;2.00;;;;;;;;;;4955933;28;20031;-73
2023/09/02 10:13:04;;;;;;;2.38;1.80;;;;;;;;;;4959830;28;20026;-72
2023/09/02 10:15:31;;;;;;;1.05;0.95;;;;;;;;;;4963216;28;20570;-73
2023/09/02 10:18:03;;;;;;;1.30;1.20;;;;;;;;;;4958568;28;20047;-73
2023/09/02 10:20:31;;;;;;;2.03;1.85;;;;;;;;;;4952261;28;20049;-73
2023/09/02 10:23:04;;;;;;;2.97;2.25;;;;;;;;;;4950141;28;20039;-73
2023/09/02 10:25:57;;;;;;;1.52;1.42;;;;;;;;;;4958068;28;20047;-73
2023/09/02 10:28:36;;;;;;;0.88;0.88;;;;;;;;;;4923034;28;20539;-73
2023/09/02 10:31:05;;;;;;;2.53;2.22;;;;;;;;;;4952592;28;20050;-73
2023/09/02 10:33:43;;;;;;;2.83;2.47;;;;;;;;;;4957909;28;20150;-73
2023/09/02 10:36:09;;;;;;;2.42;2.22;;;;;;;;;;4962290;28;20105;-73
2023/09/02 10:38:42;;;;;;;2.38;2.17;;;;;;;;;;4959171;28;20574;-73
2023/09/02 10:41:12;;;;;;;3.38;2.28;;;;;;;;;;4959406;28;20043;-73
2023/09/02 10:43:40;;;;;;;3.08;2.30;;;;;;;;;;4951490;28;20030;-73
2023/09/02 10:46:07;;;;;;;2.22;2.03;;;;;;;;;;4943748;28;20030;-73
2023/09/02 10:48:36;;;;;;;2.30;2.10;;;;;;;;;;4956017;28;20627;-73
2023/09/02 10:51:04;;;;;;;2.35;2.10;;;;;;;;;;4955315;28;20097;-73
2023/09/02 10:53:47;;;;;;;2.40;2.20;;;;;;;;;;4963609;28;20046;-73
2023/09/02 10:56:24;;;;;;;2.60;2.40;;;;;;;;;;4945947;28;20506;-73
2023/09/02 10:58:49;;;;;;;1.70;1.60;;;;;;;;;;4958119;28;20861;-73
2023/09/02 11:01:15;;;;;;;2.20;2.00;;;;;;;;;;4959695;28;20042;-73
2023/09/02 11:03:46;;;;;;;2.08;1.88;;;;;;;;;;4963246;28;20046;-73
2023/09/02 11:06:14;;;;;;;3.08;2.25;;;;;;;;;;4962749;28;20042;-73
2023/09/02 11:08:48;;;;;;;1.52;1.40;;;;;;;;;;4929106;28;20043;-73
2023/09/02 11:11:13;;;;;;;2.13;1.85;;;;;;;;;;4920228;28;20448;-73
2023/09/02 11:14:08;;;;;;;2.55;1.95;;;;;;;;;;4937614;28;20089;-73
2023/09/02 11:16:42;;;;;;;1.20;1.10;;;;;;;;;;4924160;28;20073;-73
2023/09/02 11:19:11;;;;;;;2.53;1.60;;;;;;;;;;4917602;28;20060;-73
2023/09/02 11:21:40;;;;;;;1.50;1.40;;;;;;;;;;4943502;28;20505;-73
2023/09/02 11:24:12;;;;;;;1.17;1.08;;;;;;;;;;4937123;28;20431;-73
2023/09/02 11:26:57;;;;;;;1.70;1.60;;;;;;;;;;4939737;28;20122;-73
2023/09/02 11:29:24;;;;;;;1.27;1.20;;;;;;;;;;4919752;28;20054;-73
2023/09/02 11:31:55;;;;;;;2.10;1.90;;;;;;;;;;4945851;28;20042;-73
2023/09/02 11:34:21;;;;;;;2.25;1.98;;;;;;;;;;4942185;28;20039;-73
2023/09/02 11:36:46;;;;;;;1.20;1.10;;;;;;;;;;4941131;28;20640;-73
2023/09/02 11:39:11;;;;;;;2.08;1.88;;;;;;;;;;4941643;28;20123;-73
2023/09/02 11:41:37;;;;;;;3.25;2.20;;;;;;;;;;4943684;28;20036;-73
2023/09/02 11:44:10;;;;;;;2.38;2.17;;;;;;;;;;4919647;28;20124;-73
2023/09/02 11:46:39;;;;;;;1.95;1.80;;;;;;;;;;4945379;28;20051;-73
2023/09/02 11:49:20;;;;;;;1.85;1.58;;;;;;;;;;4925860;28;20040;-73
2023/09/02 11:51:46;;;;;;;1.52;1.25;;;;;;;;;;4942131;28;20035;-73
2023/09/02 11:54:11;;;;;;;1.70;1.42;;;;;;;;;;4940712;28;20048;-73
2023/09/02 11:56:38;;;;;;;2.33;2.03;;;;;;;;;;4945415;28;20419;-73
2023/09/02 11:59:03;;;;;;;2.50;2.30;;;;;;;;;;4939536;28;20117;-73
2023/09/02 12:01:29;;;;;;;2.65;2.15;;;;;;;;;;4921356;28;20043;-73
2023/09/02 12:03:55;;;;;;;2.13;1.50;;;;;;;;;;4945524;28;20042;-73
2023/09/02 12:06:21;;;;;;;1.40;1.30;;;;;;;;;;4941675;28;20047;-73
2023/09/02 12:08:50;;;;;;;1.98;1.80;;;;;;;;;;4928985;28;20110;-74
2023/09/02 12:11:15;;;;;;;1.67;1.58;;;;;;;;;;4943106;28;20046;-73
2023/09/02 12:13:42;;;;;;;2.30;2.10;;;;;;;;;;4956044;28;20039;-74
2023/09/02 12:16:15;;;;;;;1.40;1.30;;;;;;;;;;4961999;28;20561;-74
2023/09/02 12:18:40;;;;;;;1.83;1.73;;;;;;;;;;4960392;28;20058;-74
2023/09/02 12:21:06;;;;;;;1.58;1.48;;;;;;;;;;4957161;28;20804;-74
2023/09/02 12:23:31;;;;;;;1.70;1.60;;;;;;;;;;4960680;28;20089;-74
2023/09/02 12:26:08;;;;;;;1.60;1.50;;;;;;;;;;4961946;28;20108;-73
2023/09/02 12:28:34;;;;;;;1.40;1.30;;;;;;;;;;4947854;28;20174;-74
2023/09/02 12:30:59;;;;;;;1.80;1.70;;;;;;;;;;4959821;28;20516;-74
2023/09/02 12:33:26;;;;;;;1.73;1.63;;;;;;;;;;4960142;28;20038;-73
2023/09/02 12:35:51;;;;;;;9.32;2.70;;;;;;;;;;4951053;28;20039;-74
2023/09/02 12:38:19;;;;;;;2.13;1.92;;;;;;;;;;4957894;28;20373;-73
2023/09/02 12:40:55;;;;;;;2.17;2.00;;;;;;;;;;4958844;28;20043;-73
2023/09/02 12:43:27;;;;;;;2.05;1.85;;;;;;;;;;4957802;28;20042;-74
2023/09/02 12:45:53;;;;;;;2.20;2.00;;;;;;;;;;4956324;28;20602;-74
2023/09/02 12:48:19;;;;;;;2.15;1.95;;;;;;;;;;4949637;28;20051;-74
2023/09/02 12:50:45;;;;;;;2.90;1.48;;;;;;;;;;4957586;28;20046;-73
2023/09/02 12:53:12;;;;;;;1.45;1.35;;;;;;;;;;4957520;28;20053;-74
2023/09/02 12:55:43;;;;;;;1.90;1.80;;;;;;;;;;4961687;28;20043;-73
2023/09/02 12:58:09;;;;;;;1.25;1.02;;;;;;;;;;4943654;28;20168;-74
2023/09/02 13:00:34;;;;;;;1.38;1.27;;;;;;;;;;4949407;28;20515;-74
2023/09/02 13:03:00;;;;;;;2.95;1.65;;;;;;;;;;4956548;28;20144;-74
2023/09/02 13:05:25;;;;;;;1.40;1.30;;;;;;;;;;4961833;28;20035;-74
2023/09/02 13:07:53;;;;;;;1.63;1.52;;;;;;;;;;4963408;28;20049;-73
2023/09/02 13:10:19;;;;;;;1.60;1.50;;;;;;;;;;4959716;28;20043;-74
2023/09/02 13:12:46;;;;;;;1.30;1.20;;;;;;;;;;4955116;28;20751;-73
2023/09/02 13:15:12;;;;;;;0.93;0.93;;;;;;;;;;4946511;28;20063;-74
2023/09/02 13:17:38;;;;;;;1.70;1.40;;;;;;;;;;4961418;28;20510;-74
2023/09/02 13:20:04;;;;;;;2.55;1.50;;;;;;;;;;4960230;28;20066;-73
2023/09/02 13:22:30;;;;;;;1.40;1.30;;;;;;;;;;4957101;28;20057;-74
2023/09/02 13:24:55;;;;;;;1.33;1.23;;;;;;;;;;4959538;28;20579;-74
2023/09/02 13:27:21;;;;;;;2.58;1.55;;;;;;;;;;4965788;28;20034;-74
2023/09/02 13:29:47;;;;;;;1.92;1.45;;;;;;;;;;4949195;28;20045;-73
2023/09/02 13:32:22;;;;;;;1.70;1.60;;;;;;;;;;4960325;28;20047;-74
2023/09/02 13:34:48;;;;;;;1.10;1.10;;;;;;;;;;4944442;28;20085;-74
2023/09/02 13:37:19;;;;;;;1.58;1.48;;;;;;;;;;4960831;28;20035;-73
2023/09/02 13:39:46;;;;;;;1.13;1.00;;;;;;;;;;4955197;28;20091;-74
2023/09/02 13:42:17;;;;;;;1.40;1.30;;;;;;;;;;4929844;28;20653;-74
2023/09/02 13:44:43;;;;;;;1.50;1.40;;;;;;;;;;4957879;28;20030;-73
2023/09/02 13:47:08;;;;;;;1.00;1.00;;;;;;;;;;4959188;28;20674;-74
2023/09/02 13:49:34;;;;;;;2.22;1.33;;;;;;;;;;4960183;28;20706;-74
2023/09/02 13:52:01;;;;;;;4.88;1.88;;;;;;;;;;4957842;28;20038;-74
2023/09/02 13:54:26;;;;;;;6.07;1.63;;;;;;;;;;4951696;28;20644;-74
2023/09/02 13:56:52;;;;;;;1.30;1.20;;;;;;;;;;4961485;28;20137;-74
2023/09/02 13:59:17;;;;;;;1.23;1.00;;;;;;;;;;4941751;28;20039;-74
2023/09/02 14:01:43;;;;;;;3.30;1.33;;;;;;;;;;4949510;28;20541;-73
2023/09/02 14:04:09;;;;;;;1.20;1.10;;;;;;;;;;4960716;28;20130;-73
2023/09/02 14:06:34;;;;;;;1.83;1.25;;;;;;;;;;4960117;28;20046;-74
2023/09/02 14:09:01;;;;;;;1.40;1.30;;;;;;;;;;4946163;28;20047;-74
2023/09/02 14:11:29;;;;;;;0.95;0.95;;;;;;;;;;4960398;28;20031;-73
2023/09/02 14:13:55;;;;;;;1.20;1.10;;;;;;;;;;4960046;28;20034;-73
2023/09/02 14:16:21;;;;;;;1.17;1.15;;;;;;;;;;4960137;28;20085;-74
2023/09/02 14:18:47;;;;;;;1.27;1.17;;;;;;;;;;4961734;28;20046;-73
2023/09/02 14:21:12;;;;;;;0.93;0.93;;;;;;;;;;4956351;28;20115;-73
2023/09/02 14:23:38;;;;;;;1.20;1.10;;;;;;;;;;4946332;28;20539;-74
2023/09/02 14:26:03;;;;;;;1.40;1.25;;;;;;;;;;4944507;28;20043;-74
2023/09/02 14:28:30;;;;;;;1.50;1.33;;;;;;;;;;4954710;28;20039;-73
2023/09/02 14:30:56;;;;;;;1.00;1.00;;;;;;;;;;4954923;28;20050;-74
2023/09/02 14:33:21;;;;;;;1.42;1.33;;;;;;;;;;4955988;28;20829;-74
2023/09/02 14:35:47;;;;;;;1.35;1.25;;;;;;;;;;4955765;28;20070;-74
2023/09/02 14:38:12;;;;;;;1.00;1.00;;;;;;;;;;4935820;28;20094;-74
2023/09/02 14:40:37;;;;;;;1.25;1.10;;;;;;;;;;4955514;28;20050;-74
2023/09/02 14:43:03;;;;;;;1.00;1.00;;;;;;;;;;4960746;28;20039;-73
2023/09/02 14:45:31;;;;;;;1.13;0.98;;;;;;;;;;4957648;28;20506;-73